Inicio METAR Ruta Wind Satelite

Informe Meteorológico

Fecha: 2021/09/21 16:27:46 Local
2021.09.21 21:27 UTC


Operación:VFR
SKSM 212100Z 31004KT 9999 FEW020 SCT070 BKN200 32/24 Q1008 RMK A2978 =

SKSM 210200Z 03011KT 9999 FEW020 OVC070 29/23 Q1009 RMK A2983
SKSM 210100Z 03014KT 9999 FEW020 OVC070 29/24 Q1009 RMK A2980
SKSM 210000Z 04010KT 9999 FEW020 OVC070 30/25 Q1009 RMK A2980